Time;durP1;ratioP1;P1;durP2;ratioP2;P2;SDS_P1;SDS_P2;PMS_P1;PMS_P2;Temp;Humidity;BMP_temperature;BMP_pressure;BME280_temperature;BME280_humidity;BME280_pressure;Samples;Min_cycle;Max_cycle;Signal;HPM_P1;HPM_P2
2021/12/01 00:01:42;;;;;;;19.55;14.10;;;9.70;99.90;;;;;;5051817;28;20068;-67
2021/12/01 00:04:08;;;;;;;25.60;14.60;;;9.70;99.90;;;;;;5052113;28;20166;-68
2021/12/01 00:06:34;;;;;;;19.88;14.25;;;9.70;99.90;;;;;;5052311;28;20474;-68
2021/12/01 00:09:01;;;;;;;23.73;14.30;;;9.80;99.90;;;;;;5052531;28;20049;-68
2021/12/01 00:11:27;;;;;;;25.15;14.88;;;9.70;99.90;;;;;;5051914;28;20060;-68
2021/12/01 00:13:52;;;;;;;25.35;16.42;;;9.70;99.90;;;;;;5035294;28;20462;-68
2021/12/01 00:16:18;;;;;;;22.85;15.45;;;9.70;99.90;;;;;;5053830;28;20390;-68
2021/12/01 00:18:44;;;;;;;23.63;14.80;;;9.80;99.90;;;;;;5039656;28;20377;-68
2021/12/01 00:21:10;;;;;;;22.77;15.13;;;9.80;99.90;;;;;;5039524;28;20037;-68
2021/12/01 00:23:35;;;;;;;21.83;14.73;;;9.90;99.90;;;;;;5055351;28;20075;-69
2021/12/01 00:26:02;;;;;;;23.55;14.75;;;9.90;99.90;;;;;;5055949;28;20473;-67
2021/12/01 00:28:28;;;;;;;28.13;15.05;;;9.90;99.90;;;;;;5056074;28;20044;-68
2021/12/01 00:30:56;;;;;;;20.23;14.32;;;9.90;99.90;;;;;;5055953;28;20036;-68
2021/12/01 00:33:22;;;;;;;20.52;13.30;;;9.80;99.90;;;;;;5055510;28;20103;-68
2021/12/01 00:35:58;;;;;;;20.42;12.35;;;9.80;99.90;;;;;;5055905;28;20095;-68
2021/12/01 00:38:26;;;;;;;25.70;13.85;;;9.90;99.90;;;;;;5056033;28;20113;-68
2021/12/01 00:40:52;;;;;;;21.85;12.65;;;9.80;99.90;;;;;;5055910;28;20358;-67
2021/12/01 00:43:18;;;;;;;19.00;12.20;;;9.80;99.90;;;;;;5055166;28;20111;-68
2021/12/01 00:45:50;;;;;;;17.30;13.25;;;9.80;99.90;;;;;;5055404;28;20116;-66
2021/12/01 00:48:18;;;;;;;22.52;12.98;;;9.80;99.90;;;;;;5055752;28;20051;-68
2021/12/01 00:50:44;;;;;;;21.77;12.45;;;9.80;99.90;;;;;;5038758;28;20377;-67
2021/12/01 00:53:11;;;;;;;21.65;12.90;;;9.80;99.90;;;;;;5054724;28;20044;-69
2021/12/01 00:55:37;;;;;;;19.50;12.30;;;9.80;99.90;;;;;;5038878;28;20506;-68
2021/12/01 00:58:03;;;;;;;17.70;11.68;;;9.90;99.90;;;;;;5055860;28;20353;-66
2021/12/01 01:00:31;;;;;;;20.25;11.32;;;9.90;99.90;;;;;;5055549;28;20121;-66
2021/12/01 01:02:59;;;;;;;17.95;9.73;;;9.90;99.90;;;;;;5054777;28;20688;-68
2021/12/01 01:05:26;;;;;;;18.52;10.15;;;9.90;99.90;;;;;;5055260;28;20048;-68
2021/12/01 01:07:52;;;;;;;19.15;10.43;;;9.80;99.90;;;;;;5055465;28;20078;-68
2021/12/01 01:18:25;;;;;;;12.57;7.78;;;9.90;99.90;;;;;;5054999;28;20037;-67
2021/12/01 01:20:51;;;;;;;13.25;7.45;;;9.90;99.90;;;;;;5038415;28;20044;-68
2021/12/01 01:23:17;;;;;;;12.43;6.90;;;10.00;99.90;;;;;;5054667;28;20029;-68
2021/12/01 01:25:43;;;;;;;11.82;8.45;;;9.90;99.90;;;;;;5055124;28;20037;-68
2021/12/01 01:28:08;;;;;;;11.20;7.32;;;9.90;99.90;;;;;;5054751;28;20351;-68
2021/12/01 01:30:34;;;;;;;9.75;7.03;;;9.90;99.90;;;;;;5054736;28;20037;-68
2021/12/01 01:33:03;;;;;;;11.07;6.93;;;10.00;99.90;;;;;;5054200;28;20098;-68
2021/12/01 01:35:28;;;;;;;11.10;7.38;;;9.90;99.90;;;;;;5054978;28;20044;-68
2021/12/01 01:37:54;;;;;;;12.45;8.25;;;9.90;99.90;;;;;;5054715;28;20041;-69
2021/12/01 01:40:20;;;;;;;11.32;7.45;;;9.90;99.90;;;;;;5055835;28;20041;-68
2021/12/01 01:42:46;;;;;;;11.48;7.50;;;9.90;99.90;;;;;;5037585;28;20363;-68
2021/12/01 01:45:11;;;;;;;10.95;7.55;;;9.80;99.90;;;;;;5054724;28;20037;-68
2021/12/01 01:47:59;;;;;;;10.60;7.35;;;9.90;99.90;;;;;;5054295;28;20051;-68
2021/12/01 01:50:37;;;;;;;11.70;7.90;;;10.00;99.90;;;;;;5038173;28;20503;-68
2021/12/01 01:53:13;;;;;;;10.50;7.50;;;10.00;99.90;;;;;;5053903;28;20041;-67
2021/12/01 01:55:42;;;;;;;11.55;7.28;;;10.00;99.90;;;;;;5054341;28;20132;-68
2021/12/01 01:58:08;;;;;;;9.70;7.32;;;10.00;99.90;;;;;;5038058;28;20076;-69
2021/12/01 02:00:44;;;;;;;11.75;8.13;;;10.00;99.90;;;;;;5054121;28;20114;-68
2021/12/01 02:03:14;;;;;;;11.88;7.65;;;10.00;99.90;;;;;;5053890;28;20037;-69
2021/12/01 02:05:40;;;;;;;9.55;6.72;;;10.00;99.90;;;;;;5055193;28;20080;-68
2021/12/01 02:08:15;;;;;;;11.90;6.68;;;10.00;99.90;;;;;;5054005;28;20048;-68
2021/12/01 02:10:46;;;;;;;10.45;7.20;;;10.00;99.90;;;;;;5037799;28;20060;-67
2021/12/01 02:13:12;;;;;;;10.25;6.57;;;10.10;99.90;;;;;;5053304;28;20398;-68
2021/12/01 02:15:37;;;;;;;11.23;6.32;;;10.10;99.90;;;;;;5053830;28;20053;-68
2021/12/01 02:18:03;;;;;;;13.20;7.53;;;10.10;99.90;;;;;;5053965;28;20037;-67
2021/12/01 02:20:29;;;;;;;12.05;8.13;;;10.10;99.90;;;;;;5054372;28;20045;-69
2021/12/01 02:22:58;;;;;;;12.25;8.32;;;10.00;99.90;;;;;;5053630;28;20044;-67
2021/12/01 02:25:24;;;;;;;13.10;8.70;;;10.00;99.90;;;;;;5054186;28;20473;-68
2021/12/01 02:27:50;;;;;;;12.75;8.60;;;10.10;99.90;;;;;;5054396;28;20187;-70
2021/12/01 02:30:15;;;;;;;10.25;7.85;;;10.00;99.90;;;;;;5054121;28;20409;-68
2021/12/01 02:32:41;;;;;;;11.98;7.45;;;10.10;99.90;;;;;;5053146;28;20037;-69
2021/12/01 02:35:08;;;;;;;9.80;6.80;;;10.10;99.90;;;;;;5053645;28;20385;-68
2021/12/01 02:37:36;;;;;;;8.13;5.68;;;10.10;99.90;;;;;;5036983;28;20037;-69
2021/12/01 02:40:03;;;;;;;10.57;6.97;;;10.10;99.90;;;;;;5052830;28;20098;-68
2021/12/01 02:42:28;;;;;;;9.85;5.90;;;10.10;99.90;;;;;;5036359;28;20037;-68
2021/12/01 02:44:54;;;;;;;8.32;5.55;;;10.10;99.90;;;;;;5036846;28;20119;-68
2021/12/01 02:47:23;;;;;;;8.55;4.10;;;10.10;99.90;;;;;;5053445;28;20541;-68
2021/12/01 02:49:51;;;;;;;6.38;4.43;;;10.20;99.90;;;;;;5053383;28;20042;-68
2021/12/01 02:52:17;;;;;;;5.85;3.75;;;10.20;99.90;;;;;;5052691;28;20087;-67
2021/12/01 02:54:43;;;;;;;4.15;2.72;;;10.10;99.90;;;;;;5036895;28;20072;-67
2021/12/01 02:57:09;;;;;;;7.18;3.17;;;10.20;99.90;;;;;;5053160;28;20061;-67
2021/12/01 02:59:36;;;;;;;5.75;2.60;;;10.20;99.90;;;;;;5053595;28;20094;-67
2021/12/01 03:02:02;;;;;;;7.05;2.17;;;10.40;99.90;;;;;;5036275;28;20047;-67
2021/12/01 03:04:29;;;;;;;6.53;1.75;;;10.40;99.90;;;;;;5052760;28;20036;-67
2021/12/01 03:06:56;;;;;;;10.77;2.10;;;10.40;99.90;;;;;;5053156;28;20462;-67
2021/12/01 03:09:22;;;;;;;8.32;1.90;;;10.40;99.90;;;;;;5053387;28;20056;-67
2021/12/01 03:11:49;;;;;;;8.02;2.17;;;10.50;99.90;;;;;;5052727;28;20049;-67
2021/12/01 03:14:17;;;;;;;12.13;2.00;;;10.40;99.90;;;;;;5052523;28;20128;-67
2021/12/01 03:16:45;;;;;;;9.60;2.08;;;10.40;99.90;;;;;;5053637;28;20419;-67
2021/12/01 03:19:10;;;;;;;6.97;1.92;;;10.30;99.90;;;;;;5052899;28;20470;-66
2021/12/01 03:21:41;;;;;;;3.78;1.73;;;10.40;99.90;;;;;;5035973;28;20037;-67
2021/12/01 03:24:07;;;;;;;5.20;2.00;;;10.40;99.90;;;;;;5052817;28;20377;-68
2021/12/01 03:26:34;;;;;;;4.75;1.83;;;10.30;99.90;;;;;;5052856;28;20045;-66
2021/12/01 03:29:00;;;;;;;4.50;1.90;;;10.30;99.90;;;;;;5036132;28;20505;-67
2021/12/01 03:31:26;;;;;;;4.07;2.00;;;10.30;99.90;;;;;;5052223;28;20041;-68
2021/12/01 03:33:52;;;;;;;5.60;1.92;;;10.40;99.90;;;;;;5052248;28;20036;-68
2021/12/01 03:36:18;;;;;;;4.63;2.05;;;10.40;99.90;;;;;;5052435;28;20508;-66
2021/12/01 03:38:44;;;;;;;3.42;2.08;;;10.30;99.90;;;;;;5053765;28;20040;-67
2021/12/01 03:41:10;;;;;;;5.10;2.58;;;10.30;99.90;;;;;;5053449;28;20033;-69
2021/12/01 03:43:36;;;;;;;4.13;2.67;;;10.40;99.90;;;;;;5052157;28;20033;-67
2021/12/01 03:46:02;;;;;;;4.05;2.50;;;10.40;99.90;;;;;;5035843;28;20059;-67
2021/12/01 03:48:27;;;;;;;5.00;2.40;;;10.30;99.90;;;;;;5052318;28;20056;-67
2021/12/01 03:50:54;;;;;;;6.78;3.20;;;10.30;99.90;;;;;;5051905;28;20037;-66
2021/12/01 03:53:22;;;;;;;5.13;2.83;;;10.30;99.90;;;;;;5051851;28;20706;-67
2021/12/01 03:55:48;;;;;;;8.20;2.65;;;10.30;99.90;;;;;;5051957;28;20044;-66
2021/12/01 03:58:14;;;;;;;5.20;2.88;;;10.20;99.90;;;;;;5052461;28;20033;-67
2021/12/01 04:00:40;;;;;;;4.90;3.08;;;10.30;99.90;;;;;;5052111;28;20432;-68
2021/12/01 04:03:06;;;;;;;4.93;3.05;;;10.20;99.90;;;;;;5051959;28;20071;-68
2021/12/01 04:05:32;;;;;;;4.78;2.75;;;10.10;99.90;;;;;;5052262;28;20075;-68
2021/12/01 04:07:59;;;;;;;4.40;2.80;;;10.10;99.90;;;;;;5035827;28;20037;-68
2021/12/01 04:10:25;;;;;;;5.22;2.63;;;10.10;99.90;;;;;;5052197;28;20049;-67
2021/12/01 04:12:51;;;;;;;7.68;3.00;;;10.00;99.90;;;;;;5051207;28;20060;-68
2021/12/01 04:15:16;;;;;;;4.35;2.72;;;10.00;99.90;;;;;;5052175;28;20053;-67
2021/12/01 04:17:43;;;;;;;4.72;2.55;;;10.00;99.90;;;;;;5051878;28;20040;-67
2021/12/01 04:20:12;;;;;;;4.30;2.25;;;10.00;99.90;;;;;;5052221;28;20120;-67
2021/12/01 04:22:38;;;;;;;4.20;2.33;;;10.10;99.90;;;;;;5051527;28;20037;-67
2021/12/01 04:25:05;;;;;;;3.95;2.15;;;10.10;99.90;;;;;;5035750;28;20040;-68
2021/12/01 04:27:31;;;;;;;3.42;2.33;;;10.10;99.90;;;;;;5052143;28;20179;-68
2021/12/01 04:29:57;;;;;;;3.83;2.40;;;10.10;99.90;;;;;;5052182;28;20128;-67
2021/12/01 04:32:23;;;;;;;3.63;2.33;;;10.00;99.90;;;;;;5051458;28;20450;-68
2021/12/01 04:34:48;;;;;;;3.80;2.25;;;10.00;99.90;;;;;;5051981;28;20417;-67
2021/12/01 04:37:14;;;;;;;4.57;2.70;;;10.00;99.90;;;;;;5051958;28;20045;-67
2021/12/01 04:39:40;;;;;;;4.43;2.60;;;9.90;99.90;;;;;;5035543;28;20033;-68
2021/12/01 04:42:07;;;;;;;4.38;2.75;;;9.90;99.90;;;;;;5051454;28;20366;-67
2021/12/01 04:44:39;;;;;;;3.28;2.60;;;9.90;99.90;;;;;;5051804;28;20056;-68
2021/12/01 04:47:10;;;;;;;3.92;2.50;;;9.90;99.90;;;;;;5051659;28;20504;-68
2021/12/01 04:49:39;;;;;;;4.45;2.85;;;9.80;99.90;;;;;;5051724;28;20048;-67
2021/12/01 04:52:06;;;;;;;3.70;2.45;;;9.80;99.90;;;;;;5051548;28;20037;-67
2021/12/01 04:54:33;;;;;;;5.65;2.85;;;9.80;99.90;;;;;;5034908;28;20033;-67
2021/12/01 04:57:00;;;;;;;3.53;2.30;;;9.80;99.90;;;;;;5051695;28;20098;-67
2021/12/01 04:59:26;;;;;;;3.63;2.58;;;9.80;99.90;;;;;;5052028;28;20041;-67
2021/12/01 05:01:53;;;;;;;2.85;2.30;;;9.80;99.90;;;;;;5052253;28;20044;-68
2021/12/01 05:04:19;;;;;;;3.63;2.50;;;9.80;99.90;;;;;;5054990;28;20044;-67
2021/12/01 05:06:45;;;;;;;3.67;2.83;;;9.80;99.90;;;;;;5055409;28;20037;-66
2021/12/01 05:09:11;;;;;;;3.20;2.55;;;9.70;99.90;;;;;;5038685;28;20049;-67
2021/12/01 05:11:37;;;;;;;5.15;2.90;;;9.70;99.90;;;;;;5055094;28;20040;-67
2021/12/01 05:14:03;;;;;;;4.22;2.72;;;9.70;99.90;;;;;;5054739;28;20706;-67
2021/12/01 05:16:29;;;;;;;3.67;2.72;;;9.60;99.90;;;;;;5054821;28;20155;-67
2021/12/01 05:18:54;;;;;;;3.83;2.88;;;9.60;99.90;;;;;;5055239;28;20127;-67
2021/12/01 05:21:20;;;;;;;3.50;2.20;;;9.60;99.90;;;;;;5055688;28;20628;-66
2021/12/01 05:23:46;;;;;;;3.92;2.60;;;9.70;99.90;;;;;;5054879;28;20396;-67
2021/12/01 05:26:12;;;;;;;3.33;2.60;;;9.70;99.90;;;;;;5038413;28;20040;-68
2021/12/01 05:28:39;;;;;;;3.38;2.67;;;9.70;99.90;;;;;;5054870;28;20078;-66
2021/12/01 05:31:06;;;;;;;4.32;2.70;;;9.60;99.90;;;;;;5054492;28;20068;-66
2021/12/01 05:33:32;;;;;;;3.75;2.90;;;9.70;99.90;;;;;;5054924;28;20119;-67
2021/12/01 05:35:58;;;;;;;3.72;3.08;;;9.60;99.90;;;;;;5054946;28;20450;-67
2021/12/01 05:38:25;;;;;;;3.50;2.92;;;9.70;99.90;;;;;;5037938;28;20051;-67
2021/12/01 05:40:51;;;;;;;4.57;3.30;;;9.60;99.90;;;;;;5054436;28;20049;-66
2021/12/01 05:43:18;;;;;;;5.85;3.30;;;9.60;99.90;;;;;;5037697;28;20039;-67
2021/12/01 05:45:45;;;;;;;4.18;3.17;;;9.50;99.90;;;;;;5037845;28;20041;-66
2021/12/01 05:48:11;;;;;;;4.65;3.40;;;9.50;99.90;;;;;;5054545;28;20048;-67
2021/12/01 05:50:37;;;;;;;4.05;2.80;;;9.50;99.90;;;;;;5049435;28;20049;-66
2021/12/01 05:53:04;;;;;;;4.30;3.08;;;9.50;99.90;;;;;;5037851;28;20041;-66
2021/12/01 05:55:30;;;;;;;4.13;3.13;;;9.40;99.90;;;;;;5034421;28;20107;-67
2021/12/01 05:57:55;;;;;;;4.68;2.47;;;9.30;99.90;;;;;;5052856;28;20045;-66
2021/12/01 06:00:22;;;;;;;2.70;2.28;;;9.40;99.90;;;;;;5052871;28;20056;-66
2021/12/01 06:02:50;;;;;;;3.70;2.33;;;9.40;99.90;;;;;;5052285;28;20494;-66
2021/12/01 06:05:20;;;;;;;2.53;2.10;;;9.30;99.90;;;;;;5037018;28;20060;-66
2021/12/01 06:07:47;;;;;;;2.10;1.90;;;9.40;99.90;;;;;;5051861;28;20468;-66
2021/12/01 06:10:13;;;;;;;2.60;2.00;;;9.40;99.90;;;;;;5053432;28;20037;-66
2021/12/01 06:12:40;;;;;;;1.90;1.70;;;9.30;99.90;;;;;;5051685;28;20080;-66
2021/12/01 06:15:10;;;;;;;3.58;1.70;;;9.30;99.90;;;;;;5044566;28;20057;-66
2021/12/01 06:17:36;;;;;;;2.38;1.77;;;9.30;99.90;;;;;;5030142;28;20049;-66
2021/12/01 06:20:03;;;;;;;2.22;1.80;;;9.30;99.90;;;;;;5053934;28;20048;-66
2021/12/01 06:22:29;;;;;;;2.53;1.80;;;9.20;99.90;;;;;;5042013;28;20459;-68
2021/12/01 06:24:54;;;;;;;1.98;1.40;;;9.30;99.90;;;;;;5043215;28;20066;-67
2021/12/01 06:27:20;;;;;;;1.42;1.33;;;9.30;99.90;;;;;;5043052;28;20056;-68
2021/12/01 06:29:45;;;;;;;1.90;1.63;;;9.30;99.90;;;;;;5034825;28;20458;-66
2021/12/01 06:32:11;;;;;;;2.08;1.58;;;9.30;99.90;;;;;;5033453;28;20190;-68
2021/12/01 06:34:37;;;;;;;2.42;1.58;;;9.30;99.90;;;;;;5051580;28;20465;-67
2021/12/01 06:37:03;;;;;;;2.15;1.80;;;9.30;99.90;;;;;;5053549;28;20041;-68
2021/12/01 06:39:29;;;;;;;2.38;1.60;;;9.20;99.90;;;;;;5051245;28;20332;-67
2021/12/01 06:41:54;;;;;;;1.63;1.52;;;9.10;99.90;;;;;;5051236;28;20167;-68
2021/12/01 06:44:23;;;;;;;2.63;1.90;;;9.10;99.90;;;;;;5019212;28;20065;-67
2021/12/01 06:46:49;;;;;;;2.42;1.88;;;9.20;99.90;;;;;;5033583;28;20123;-67
2021/12/01 06:49:14;;;;;;;3.78;1.77;;;9.10;99.90;;;;;;5053172;28;20120;-68
2021/12/01 06:51:40;;;;;;;2.97;2.10;;;9.10;99.90;;;;;;5052719;28;20466;-69
2021/12/01 06:54:06;;;;;;;2.38;1.80;;;9.00;99.90;;;;;;5051342;28;20052;-71
2021/12/01 06:56:31;;;;;;;2.10;1.90;;;9.00;99.90;;;;;;5050787;28;20056;-66
2021/12/01 06:58:57;;;;;;;1.75;1.65;;;9.00;99.90;;;;;;5049243;28;20102;-68
2021/12/01 07:01:22;;;;;;;2.67;2.30;;;9.10;99.90;;;;;;5038327;28;20043;-70
2021/12/01 07:03:48;;;;;;;3.05;2.28;;;9.20;99.90;;;;;;5051563;28;20454;-65
2021/12/01 07:06:14;;;;;;;2.45;2.10;;;9.10;99.90;;;;;;5048775;28;20029;-67
2021/12/01 07:08:40;;;;;;;2.90;2.30;;;9.00;99.90;;;;;;5052735;28;20488;-68
2021/12/01 07:11:05;;;;;;;3.20;2.03;;;9.10;99.90;;;;;;5052961;28;20036;-67
2021/12/01 07:13:33;;;;;;;3.15;2.70;;;9.10;99.90;;;;;;5052319;28;20485;-68
2021/12/01 07:16:00;;;;;;;4.18;2.83;;;9.10;99.90;;;;;;5052343;28;20128;-65
2021/12/01 07:18:26;;;;;;;3.13;2.53;;;9.10;99.90;;;;;;5054145;28;20077;-67
2021/12/01 07:20:52;;;;;;;3.85;3.03;;;9.20;99.90;;;;;;5050098;28;20041;-67
2021/12/01 07:23:17;;;;;;;4.72;3.38;;;9.20;99.90;;;;;;5051084;28;20115;-67
2021/12/01 07:25:44;;;;;;;7.07;4.03;;;9.20;99.90;;;;;;5049410;28;20132;-68
2021/12/01 07:28:10;;;;;;;4.47;3.50;;;9.10;99.90;;;;;;5033106;28;20429;-68
2021/12/01 07:30:37;;;;;;;5.55;3.25;;;9.20;99.90;;;;;;5042783;28;20132;-69
2021/12/01 07:33:04;;;;;;;4.03;3.33;;;9.20;99.90;;;;;;5035724;28;20072;-66
2021/12/01 07:35:29;;;;;;;4.95;3.33;;;9.20;99.90;;;;;;5053445;28;20079;-67
2021/12/01 07:37:56;;;;;;;4.35;3.30;;;9.30;99.90;;;;;;5052472;28;20040;-67
2021/12/01 07:40:22;;;;;;;3.88;2.70;;;9.30;99.90;;;;;;5052439;28;20037;-67
2021/12/01 07:42:47;;;;;;;5.25;3.20;;;9.30;99.90;;;;;;5052083;28;20036;-66
2021/12/01 07:45:13;;;;;;;5.72;3.35;;;9.30;99.90;;;;;;5052383;28;20418;-67
2021/12/01 07:47:40;;;;;;;4.90;2.95;;;9.40;99.90;;;;;;5052153;28;20533;-67
2021/12/01 07:50:06;;;;;;;4.50;3.05;;;9.40;99.90;;;;;;5052299;28;20048;-67
2021/12/01 07:52:32;;;;;;;3.10;2.70;;;9.50;99.90;;;;;;5034920;28;20458;-67
2021/12/01 07:54:58;;;;;;;4.72;2.88;;;9.50;99.90;;;;;;5052392;28;20102;-66
2021/12/01 07:57:24;;;;;;;5.03;3.10;;;9.50;99.90;;;;;;5052553;28;20174;-67
2021/12/01 07:59:50;;;;;;;4.88;3.50;;;9.50;99.90;;;;;;5052123;28;20045;-67
2021/12/01 08:02:15;;;;;;;3.67;2.90;;;9.50;99.90;;;;;;5039393;28;20045;-67
2021/12/01 08:04:41;;;;;;;6.68;3.70;;;9.50;99.90;;;;;;5050337;28;20045;-67
2021/12/01 08:07:07;;;;;;;4.60;3.13;;;9.50;99.90;;;;;;5052290;28;20377;-66
2021/12/01 08:09:33;;;;;;;5.45;3.40;;;9.50;99.90;;;;;;5053446;28;20052;-66
2021/12/01 08:11:59;;;;;;;5.20;3.25;;;9.50;99.90;;;;;;5051785;28;20033;-67
2021/12/01 08:14:25;;;;;;;4.55;3.22;;;9.50;99.90;;;;;;5051848;28;20037;-67
2021/12/01 08:16:51;;;;;;;6.18;3.28;;;9.50;99.90;;;;;;5051888;28;20573;-66
2021/12/01 08:19:17;;;;;;;5.57;3.80;;;9.60;99.90;;;;;;5052180;28;20037;-66
2021/12/01 08:21:46;;;;;;;6.25;3.28;;;9.60;99.90;;;;;;5051655;28;20041;-66
2021/12/01 08:24:13;;;;;;;4.53;3.22;;;9.70;99.90;;;;;;5042659;28;20454;-65
2021/12/01 08:26:40;;;;;;;5.72;3.60;;;9.60;99.90;;;;;;5032202;28;20044;-67
2021/12/01 08:29:07;;;;;;;4.97;3.60;;;9.60;99.90;;;;;;5032121;28;20056;-66
2021/12/01 08:31:32;;;;;;;5.30;3.30;;;9.60;99.90;;;;;;5031513;28;20045;-67
2021/12/01 08:33:59;;;;;;;10.02;2.78;;;9.70;99.90;;;;;;5043690;28;20041;-67
2021/12/01 08:36:25;;;;;;;6.68;2.55;;;9.70;99.90;;;;;;5052343;28;20041;-68
2021/12/01 08:38:50;;;;;;;8.02;2.70;;;9.70;99.90;;;;;;5055974;28;20045;-68
2021/12/01 08:41:16;;;;;;;9.73;2.65;;;9.70;99.90;;;;;;5055253;28;20128;-68
2021/12/01 08:43:43;;;;;;;7.65;2.92;;;9.60;99.90;;;;;;5055509;28;20052;-67
2021/12/01 08:46:09;;;;;;;6.38;3.25;;;9.60;99.90;;;;;;5055935;28;20366;-68
2021/12/01 08:48:36;;;;;;;7.55;2.25;;;9.60;99.90;;;;;;5055736;28;20052;-68
2021/12/01 08:51:03;;;;;;;5.38;1.83;;;9.50;99.90;;;;;;5055383;28;20044;-67
2021/12/01 08:53:31;;;;;;;8.23;2.13;;;9.60;99.90;;;;;;5054077;28;20047;-68
2021/12/01 08:55:58;;;;;;;6.40;1.75;;;9.60;99.90;;;;;;5055572;28;20045;-67
2021/12/01 08:58:24;;;;;;;7.32;1.80;;;9.50;99.90;;;;;;5055576;28;20037;-67
2021/12/01 09:00:50;;;;;;;10.75;2.70;;;9.50;99.90;;;;;;5054969;28;20037;-67
2021/12/01 09:03:18;;;;;;;12.60;2.63;;;9.50;99.90;;;;;;5055522;28;20041;-67
2021/12/01 09:05:45;;;;;;;11.63;2.10;;;9.60;99.90;;;;;;5054903;28;20064;-67
2021/12/01 09:08:12;;;;;;;12.77;2.33;;;9.50;99.90;;;;;;5055761;28;20064;-67
2021/12/01 09:10:37;;;;;;;9.55;2.42;;;9.40;99.90;;;;;;5054962;28;20175;-67
2021/12/01 09:13:05;;;;;;;14.68;3.15;;;9.40;99.90;;;;;;5042176;28;20140;-67
2021/12/01 09:15:31;;;;;;;7.57;2.10;;;9.50;99.90;;;;;;5056290;28;20057;-66
2021/12/01 09:17:57;;;;;;;10.98;2.25;;;9.50;99.90;;;;;;5055190;28;20044;-66
2021/12/01 09:20:24;;;;;;;9.20;2.35;;;9.50;99.90;;;;;;5054892;28;20136;-66
2021/12/01 09:22:50;;;;;;;14.40;2.55;;;9.50;99.90;;;;;;5055051;28;20537;-67
2021/12/01 09:25:16;;;;;;;14.52;3.38;;;9.50;99.90;;;;;;5055232;28;20124;-70
2021/12/01 09:27:44;;;;;;;9.20;1.95;;;9.50;99.90;;;;;;5054687;28;20041;-67
2021/12/01 09:30:11;;;;;;;13.63;3.28;;;9.60;99.90;;;;;;5055233;28;20053;-69
2021/12/01 09:32:38;;;;;;;15.60;3.60;;;9.50;99.90;;;;;;5054214;28;20454;-67
2021/12/01 09:35:05;;;;;;;8.50;1.90;;;9.50;99.90;;;;;;5054758;28;20091;-67
2021/12/01 09:37:31;;;;;;;10.95;1.73;;;9.50;99.90;;;;;;5054804;28;20048;-67
2021/12/01 09:39:57;;;;;;;9.30;2.30;;;9.50;99.90;;;;;;5038220;28;20091;-67
2021/12/01 09:42:23;;;;;;;12.50;2.08;;;9.60;99.90;;;;;;5054182;28;20029;-67
2021/12/01 09:44:51;;;;;;;20.77;4.05;;;9.60;99.90;;;;;;5054349;28;20094;-67
2021/12/01 09:47:19;;;;;;;28.17;4.00;;;9.50;99.90;;;;;;5055447;28;20056;-67
2021/12/01 09:49:46;;;;;;;12.48;2.28;;;9.50;99.90;;;;;;5054657;28;20355;-66
2021/12/01 09:52:12;;;;;;;16.40;2.90;;;9.50;99.90;;;;;;5054434;28;20051;-67
2021/12/01 09:54:39;;;;;;;14.70;2.70;;;9.40;99.90;;;;;;5053947;28;20120;-67
2021/12/01 09:57:06;;;;;;;12.57;2.60;;;9.40;99.90;;;;;;5055501;28;20056;-67
2021/12/01 09:59:33;;;;;;;19.83;3.83;;;9.40;99.90;;;;;;5054216;28;20041;-66
2021/12/01 10:01:58;;;;;;;9.73;2.22;;;9.30;99.90;;;;;;5054959;28;20064;-66
2021/12/01 10:04:25;;;;;;;12.88;2.30;;;9.30;99.90;;;;;;5055045;28;20095;-66
2021/12/01 10:06:50;;;;;;;9.50;2.20;;;9.30;99.90;;;;;;5054100;28;20079;-67
2021/12/01 10:09:18;;;;;;;11.32;2.13;;;9.30;99.90;;;;;;5054296;28;20060;-66
2021/12/01 10:11:44;;;;;;;12.77;2.15;;;9.30;99.90;;;;;;5053851;28;20041;-67
2021/12/01 10:14:18;;;;;;;13.68;3.38;;;9.30;99.90;;;;;;5054816;28;20378;-67
2021/12/01 10:16:44;;;;;;;16.33;2.92;;;9.30;99.90;;;;;;5053878;28;20049;-68
2021/12/01 10:19:13;;;;;;;14.57;2.55;;;9.40;99.90;;;;;;5054154;28;20052;-68
2021/12/01 10:21:41;;;;;;;13.50;2.95;;;9.40;99.90;;;;;;5053608;28;20351;-67
2021/12/01 10:24:08;;;;;;;10.10;1.77;;;9.50;99.90;;;;;;5054603;28;20094;-68
2021/12/01 10:26:39;;;;;;;8.02;1.67;;;9.40;99.90;;;;;;5055008;28;20077;-66
2021/12/01 10:29:10;;;;;;;9.50;2.17;;;9.40;99.90;;;;;;5054846;28;20056;-67
2021/12/01 10:31:39;;;;;;;16.38;1.90;;;9.50;99.90;;;;;;5053721;28;20067;-67
2021/12/01 10:34:21;;;;;;;11.02;2.42;;;9.50;99.90;;;;;;5036295;28;20068;-67
2021/12/01 10:36:49;;;;;;;13.18;2.15;;;9.50;99.90;;;;;;5046748;28;20085;-66
2021/12/01 10:39:15;;;;;;;11.80;2.00;;;9.60;99.90;;;;;;5052374;28;20420;-66
2021/12/01 10:41:43;;;;;;;10.02;2.10;;;9.60;99.90;;;;;;5053351;28;20045;-67
2021/12/01 10:44:18;;;;;;;10.85;2.33;;;9.60;99.90;;;;;;5054551;28;20052;-67
2021/12/01 10:46:48;;;;;;;11.32;2.67;;;9.60;99.90;;;;;;5054622;28;20048;-66
2021/12/01 10:49:15;;;;;;;10.50;1.92;;;9.50;99.90;;;;;;5054584;28;20060;-67
2021/12/01 10:51:44;;;;;;;9.55;2.17;;;9.60;99.90;;;;;;5054349;28;20041;-66
2021/12/01 10:54:19;;;;;;;13.88;2.92;;;9.60;99.90;;;;;;5053216;28;20045;-67
2021/12/01 10:56:46;;;;;;;15.43;4.60;;;9.60;99.90;;;;;;5053215;28;20322;-66
2021/12/01 10:59:16;;;;;;;13.90;2.95;;;9.60;99.90;;;;;;5052555;28;20060;-66
2021/12/01 11:01:45;;;;;;;11.90;2.53;;;9.70;99.90;;;;;;5052907;28;20414;-66
2021/12/01 11:04:10;;;;;;;14.60;2.25;;;9.60;99.90;;;;;;5052978;28;20045;-67
2021/12/01 11:06:42;;;;;;;19.48;2.97;;;9.70;99.90;;;;;;5052901;28;20051;-66
2021/12/01 11:09:08;;;;;;;14.15;2.80;;;9.70;99.90;;;;;;5053304;28;20052;-65
2021/12/01 11:11:48;;;;;;;10.57;2.53;;;9.70;99.90;;;;;;5036273;28;20127;-66
2021/12/01 11:14:17;;;;;;;9.93;2.50;;;9.70;99.90;;;;;;5043959;28;20064;-66
2021/12/01 11:16:44;;;;;;;13.15;2.60;;;9.70;99.90;;;;;;5032649;28;20034;-67
2021/12/01 11:19:11;;;;;;;14.20;2.53;;;9.70;99.90;;;;;;5034091;28;20120;-67
2021/12/01 11:21:39;;;;;;;16.60;3.22;;;9.70;99.90;;;;;;5033886;28;20045;-66
2021/12/01 11:24:10;;;;;;;15.23;2.70;;;9.70;99.90;;;;;;5043687;28;20033;-67
2021/12/01 11:26:42;;;;;;;12.15;2.90;;;9.80;99.90;;;;;;5053521;28;20128;-66
2021/12/01 11:29:12;;;;;;;15.77;3.15;;;9.80;99.90;;;;;;5053887;28;20465;-66
2021/12/01 11:31:44;;;;;;;17.50;3.20;;;9.70;99.90;;;;;;5052260;28;20040;-66
2021/12/01 11:34:13;;;;;;;16.58;3.20;;;9.70;99.90;;;;;;5052463;28;20049;-67
2021/12/01 11:36:41;;;;;;;18.42;3.88;;;9.70;99.90;;;;;;5053431;28;20041;-66
2021/12/01 11:39:11;;;;;;;15.85;3.42;;;9.70;99.90;;;;;;5052934;28;20045;-66
2021/12/01 11:41:46;;;;;;;18.58;3.30;;;9.70;99.90;;;;;;5053320;28;20033;-66
2021/12/01 11:44:15;;;;;;;23.42;4.00;;;9.70;99.90;;;;;;5052658;28;20037;-66
2021/12/01 11:46:41;;;;;;;15.77;2.92;;;9.70;99.90;;;;;;5033473;28;20357;-64
2021/12/01 11:49:12;;;;;;;17.90;3.53;;;9.70;99.90;;;;;;5032285;28;20046;-67
2021/12/01 11:51:46;;;;;;;14.68;2.83;;;9.70;99.90;;;;;;5033296;28;20123;-66
2021/12/01 11:54:21;;;;;;;16.50;3.10;;;9.80;99.90;;;;;;5048308;28;20064;-66
2021/12/01 11:56:56;;;;;;;17.85;4.03;;;9.80;99.90;;;;;;5052327;28;20130;-66
2021/12/01 11:59:30;;;;;;;15.73;3.17;;;9.80;99.90;;;;;;5036286;28;20048;-66
2021/12/01 12:02:04;;;;;;;23.08;4.85;;;9.70;99.90;;;;;;5051682;28;20060;-66
2021/12/01 12:04:50;;;;;;;20.23;3.47;;;9.60;99.90;;;;;;5051976;28;20498;-66
2021/12/01 12:07:15;;;;;;;18.92;3.63;;;9.70;99.90;;;;;;5053429;28;20048;-67
2021/12/01 12:09:42;;;;;;;12.95;2.85;;;9.70;99.90;;;;;;5035643;28;20048;-67
2021/12/01 12:12:11;;;;;;;24.67;4.25;;;9.70;99.90;;;;;;5053619;28;20624;-66
2021/12/01 12:14:47;;;;;;;20.17;4.38;;;9.40;99.90;;;;;;5055834;28;20069;-66
2021/12/01 12:17:14;;;;;;;11.88;2.60;;;9.70;99.90;;;;;;5056926;28;20088;-66
2021/12/01 12:19:51;;;;;;;17.70;3.42;;;9.70;99.90;;;;;;5056274;28;20041;-68
2021/12/01 12:22:30;;;;;;;20.25;5.13;;;9.60;99.90;;;;;;5056083;28;20377;-67
2021/12/01 12:24:56;;;;;;;14.95;3.33;;;9.50;99.90;;;;;;5056245;28;20119;-66
2021/12/01 12:27:42;;;;;;;17.60;3.45;;;9.50;99.90;;;;;;5055989;28;20056;-66
2021/12/01 12:30:15;;;;;;;24.17;4.32;;;9.40;99.90;;;;;;5056727;28;20041;-66
2021/12/01 12:32:44;;;;;;;18.70;3.70;;;9.30;99.90;;;;;;5056302;28;20041;-67
2021/12/01 12:35:15;;;;;;;14.35;3.13;;;9.30;99.90;;;;;;5055716;28;20512;-67
2021/12/01 12:37:43;;;;;;;19.55;3.10;;;9.20;99.90;;;;;;5055838;28;20073;-65
2021/12/01 12:40:20;;;;;;;17.83;3.60;;;9.20;99.90;;;;;;5055754;28;20029;-66
2021/12/01 12:43:13;;;;;;;23.35;4.05;;;9.10;99.90;;;;;;5055765;28;20068;-66
2021/12/01 12:45:58;;;;;;;16.17;3.00;;;9.20;99.90;;;;;;5035614;28;20045;-66
2021/12/01 12:48:27;;;;;;;17.23;4.20;;;9.10;99.90;;;;;;5035851;28;20064;-66
2021/12/01 12:51:11;;;;;;;21.30;4.15;;;9.10;99.90;;;;;;5035824;28;20449;-66
2021/12/01 12:54:04;;;;;;;18.88;3.45;;;9.10;99.90;;;;;;5046664;28;20093;-65
2021/12/01 12:56:37;;;;;;;17.00;3.80;;;9.00;99.90;;;;;;5055313;28;20076;-66
2021/12/01 12:59:23;;;;;;;18.02;3.05;;;9.10;99.90;;;;;;5038230;28;20033;-67